Terminal Aerodrome Forecast
Issued by NWS

Home | Current Version | Previous Version | Text Only | Print | Product List | Glossary Off
Versions: 1 2 3 4 5 6 7 8 9 10 11 12 13 14

598
FTUS43 KGRB 072320
TAFCWA
TAF
KCWA 072320Z 0800/0824 26014G24KT P6SM -SN OVC024
     FM080900 28014G24KT 4SM -SN BKN024
     FM081400 31013G23KT 3SM -SN BKN024=

USA.gov is the U.S. government's official web portal to all federal, state and local government web resources and services.